sensor_id;sensor_type;location;lat;lon;timestamp;temperature;humidity
22966;DHT22;11649;48.090;9.754;2023-05-10T00:01:32;13.30;99.90
22966;DHT22;11649;48.090;9.754;2023-05-10T00:03:59;13.20;99.90
22966;DHT22;11649;48.090;9.754;2023-05-10T00:06:25;13.20;99.90
22966;DHT22;11649;48.090;9.754;2023-05-10T00:08:53;13.10;99.90
22966;DHT22;11649;48.090;9.754;2023-05-10T00:11:20;13.10;99.90
22966;DHT22;11649;48.090;9.754;2023-05-10T00:13:48;13.10;99.90
22966;DHT22;11649;48.090;9.754;2023-05-10T00:16:15;13.00;99.90
22966;DHT22;11649;48.090;9.754;2023-05-10T00:18:42;13.10;99.90
22966;DHT22;11649;48.090;9.754;2023-05-10T00:21:09;13.00;99.90
22966;DHT22;11649;48.090;9.754;2023-05-10T00:23:36;13.00;99.90
22966;DHT22;11649;48.090;9.754;2023-05-10T00:26:03;14.20;99.90
22966;DHT22;11649;48.090;9.754;2023-05-10T00:28:29;12.90;99.90
22966;DHT22;11649;48.090;9.754;2023-05-10T00:30:56;12.90;99.90
22966;DHT22;11649;48.090;9.754;2023-05-10T00:33:23;12.90;99.90
22966;DHT22;11649;48.090;9.754;2023-05-10T00:35:50;12.90;99.90
22966;DHT22;11649;48.090;9.754;2023-05-10T00:38:17;13.50;99.90
22966;DHT22;11649;48.090;9.754;2023-05-10T00:40:44;12.80;99.90
22966;DHT22;11649;48.090;9.754;2023-05-10T00:43:11;13.40;99.90
22966;DHT22;11649;48.090;9.754;2023-05-10T00:45:38;12.90;99.90
22966;DHT22;11649;48.090;9.754;2023-05-10T00:48:06;12.90;99.90
22966;DHT22;11649;48.090;9.754;2023-05-10T00:50:33;12.90;99.90
22966;DHT22;11649;48.090;9.754;2023-05-10T00:53:04;12.90;99.90
22966;DHT22;11649;48.090;9.754;2023-05-10T00:55:31;12.90;99.90
22966;DHT22;11649;48.090;9.754;2023-05-10T00:57:58;12.90;99.90
22966;DHT22;11649;48.090;9.754;2023-05-10T01:00:25;12.90;99.90
22966;DHT22;11649;48.090;9.754;2023-05-10T01:02:53;12.90;99.90
22966;DHT22;11649;48.090;9.754;2023-05-10T01:05:20;12.80;99.90
22966;DHT22;11649;48.090;9.754;2023-05-10T01:07:47;12.80;99.90
22966;DHT22;11649;48.090;9.754;2023-05-10T01:10:14;12.80;99.90
22966;DHT22;11649;48.090;9.754;2023-05-10T01:12:45;12.80;99.90
22966;DHT22;11649;48.090;9.754;2023-05-10T01:15:13;12.80;99.90
22966;DHT22;11649;48.090;9.754;2023-05-10T01:17:43;12.80;99.90
22966;DHT22;11649;48.090;9.754;2023-05-10T01:20:11;12.80;99.90
22966;DHT22;11649;48.090;9.754;2023-05-10T01:25:19;12.90;99.90
22966;DHT22;11649;48.090;9.754;2023-05-10T01:34:06;12.80;99.90
22966;DHT22;11649;48.090;9.754;2023-05-10T01:37:20;12.80;99.90
22966;DHT22;11649;48.090;9.754;2023-05-10T01:39:47;12.80;99.90
22966;DHT22;11649;48.090;9.754;2023-05-10T01:42:17;12.70;99.90
22966;DHT22;11649;48.090;9.754;2023-05-10T01:44:53;12.70;99.90
22966;DHT22;11649;48.090;9.754;2023-05-10T01:47:43;12.60;99.90
22966;DHT22;11649;48.090;9.754;2023-05-10T01:50:15;12.70;99.90
22966;DHT22;11649;48.090;9.754;2023-05-10T01:52:47;12.70;99.90
22966;DHT22;11649;48.090;9.754;2023-05-10T01:55:18;12.70;99.90
22966;DHT22;11649;48.090;9.754;2023-05-10T01:57:52;12.70;99.90
22966;DHT22;11649;48.090;9.754;2023-05-10T02:00:23;12.60;99.90
22966;DHT22;11649;48.090;9.754;2023-05-10T02:02:51;12.60;99.90
22966;DHT22;11649;48.090;9.754;2023-05-10T02:05:20;12.60;99.90
22966;DHT22;11649;48.090;9.754;2023-05-10T02:07:48;12.70;99.90
22966;DHT22;11649;48.090;9.754;2023-05-10T02:10:15;12.70;99.90
22966;DHT22;11649;48.090;9.754;2023-05-10T02:12:46;12.60;99.90
22966;DHT22;11649;48.090;9.754;2023-05-10T02:15:20;12.60;99.90
22966;DHT22;11649;48.090;9.754;2023-05-10T02:17:47;12.80;99.90
22966;DHT22;11649;48.090;9.754;2023-05-10T02:20:16;12.60;99.90
22966;DHT22;11649;48.090;9.754;2023-05-10T02:22:45;12.60;99.90
22966;DHT22;11649;48.090;9.754;2023-05-10T02:25:14;12.60;99.90
22966;DHT22;11649;48.090;9.754;2023-05-10T02:27:43;12.60;99.90
22966;DHT22;11649;48.090;9.754;2023-05-10T02:30:11;12.60;99.90
22966;DHT22;11649;48.090;9.754;2023-05-10T02:32:40;12.60;99.90
22966;DHT22;11649;48.090;9.754;2023-05-10T02:35:08;12.50;99.90
22966;DHT22;11649;48.090;9.754;2023-05-10T02:37:37;12.50;99.90
22966;DHT22;11649;48.090;9.754;2023-05-10T02:40:05;12.50;99.90
22966;DHT22;11649;48.090;9.754;2023-05-10T02:42:36;12.50;99.90
22966;DHT22;11649;48.090;9.754;2023-05-10T02:45:10;12.50;99.90
22966;DHT22;11649;48.090;9.754;2023-05-10T02:47:38;12.60;99.90
22966;DHT22;11649;48.090;9.754;2023-05-10T02:50:06;12.60;99.90
22966;DHT22;11649;48.090;9.754;2023-05-10T02:52:42;12.60;99.90
22966;DHT22;11649;48.090;9.754;2023-05-10T02:55:14;12.60;99.90
22966;DHT22;11649;48.090;9.754;2023-05-10T02:57:54;12.60;99.90
22966;DHT22;11649;48.090;9.754;2023-05-10T03:00:24;12.60;99.90
22966;DHT22;11649;48.090;9.754;2023-05-10T03:02:52;12.60;99.90
22966;DHT22;11649;48.090;9.754;2023-05-10T03:05:19;12.60;99.90
22966;DHT22;11649;48.090;9.754;2023-05-10T03:07:47;12.70;99.90
22966;DHT22;11649;48.090;9.754;2023-05-10T03:10:14;12.70;99.90
22966;DHT22;11649;48.090;9.754;2023-05-10T03:15:48;12.70;99.90
22966;DHT22;11649;48.090;9.754;2023-05-10T03:21:29;12.80;99.90
22966;DHT22;11649;48.090;9.754;2023-05-10T03:24:05;12.80;99.90
22966;DHT22;11649;48.090;9.754;2023-05-10T03:26:34;12.70;99.90
22966;DHT22;11649;48.090;9.754;2023-05-10T03:29:02;12.70;99.90
22966;DHT22;11649;48.090;9.754;2023-05-10T03:31:32;12.60;99.90
22966;DHT22;11649;48.090;9.754;2023-05-10T03:33:59;12.70;99.90
22966;DHT22;11649;48.090;9.754;2023-05-10T03:36:26;12.70;99.90
22966;DHT22;11649;48.090;9.754;2023-05-10T03:38:53;12.70;99.90
22966;DHT22;11649;48.090;9.754;2023-05-10T03:41:20;12.90;99.90
22966;DHT22;11649;48.090;9.754;2023-05-10T03:43:47;12.50;99.90
22966;DHT22;11649;48.090;9.754;2023-05-10T03:46:13;12.60;99.90
22966;DHT22;11649;48.090;9.754;2023-05-10T03:48:40;12.60;99.90
22966;DHT22;11649;48.090;9.754;2023-05-10T03:51:07;12.40;99.90
22966;DHT22;11649;48.090;9.754;2023-05-10T03:53:34;12.50;99.90
22966;DHT22;11649;48.090;9.754;2023-05-10T03:56:01;12.50;99.90
22966;DHT22;11649;48.090;9.754;2023-05-10T03:58:27;12.40;99.90
22966;DHT22;11649;48.090;9.754;2023-05-10T04:00:54;12.40;99.90
22966;DHT22;11649;48.090;9.754;2023-05-10T04:03:21;12.40;99.90
22966;DHT22;11649;48.090;9.754;2023-05-10T04:05:58;12.40;99.90
22966;DHT22;11649;48.090;9.754;2023-05-10T04:08:26;12.30;99.90
22966;DHT22;11649;48.090;9.754;2023-05-10T04:10:53;12.30;99.90
22966;DHT22;11649;48.090;9.754;2023-05-10T04:13:19;12.20;99.90
22966;DHT22;11649;48.090;9.754;2023-05-10T04:15:47;12.40;99.90
22966;DHT22;11649;48.090;9.754;2023-05-10T04:18:14;12.20;99.90
22966;DHT22;11649;48.090;9.754;2023-05-10T04:20:41;12.20;99.90
22966;DHT22;11649;48.090;9.754;2023-05-10T04:23:08;12.20;99.90
22966;DHT22;11649;48.090;9.754;2023-05-10T04:25:34;12.20;99.90
22966;DHT22;11649;48.090;9.754;2023-05-10T04:28:02;12.20;99.90
22966;DHT22;11649;48.090;9.754;2023-05-10T04:30:29;12.20;99.90
22966;DHT22;11649;48.090;9.754;2023-05-10T04:33:05;12.20;99.90
22966;DHT22;11649;48.090;9.754;2023-05-10T04:35:32;12.20;99.90
22966;DHT22;11649;48.090;9.754;2023-05-10T04:37:59;12.20;99.90
22966;DHT22;11649;48.090;9.754;2023-05-10T04:40:25;12.30;99.90
22966;DHT22;11649;48.090;9.754;2023-05-10T04:42:52;12.30;99.90
22966;DHT22;11649;48.090;9.754;2023-05-10T04:45:19;12.30;99.90
22966;DHT22;11649;48.090;9.754;2023-05-10T04:47:46;12.40;99.90
22966;DHT22;11649;48.090;9.754;2023-05-10T04:50:13;12.30;99.90
22966;DHT22;11649;48.090;9.754;2023-05-10T04:52:40;12.30;99.90
22966;DHT22;11649;48.090;9.754;2023-05-10T04:55:07;12.30;99.90
22966;DHT22;11649;48.090;9.754;2023-05-10T04:57:36;12.30;99.90
22966;DHT22;11649;48.090;9.754;2023-05-10T05:00:03;12.30;99.90
22966;DHT22;11649;48.090;9.754;2023-05-10T05:02:30;12.40;99.90
22966;DHT22;11649;48.090;9.754;2023-05-10T05:04:57;12.40;99.90
22966;DHT22;11649;48.090;9.754;2023-05-10T05:07:24;12.40;99.90
22966;DHT22;11649;48.090;9.754;2023-05-10T05:09:51;12.60;99.90
22966;DHT22;11649;48.090;9.754;2023-05-10T05:12:17;12.40;99.90
22966;DHT22;11649;48.090;9.754;2023-05-10T05:14:44;12.40;99.90
22966;DHT22;11649;48.090;9.754;2023-05-10T05:17:11;12.40;99.90
22966;DHT22;11649;48.090;9.754;2023-05-10T05:19:38;12.30;99.90
22966;DHT22;11649;48.090;9.754;2023-05-10T05:22:06;12.30;99.90
22966;DHT22;11649;48.090;9.754;2023-05-10T05:24:36;13.70;99.90
22966;DHT22;11649;48.090;9.754;2023-05-10T05:27:06;12.30;99.90
22966;DHT22;11649;48.090;9.754;2023-05-10T05:29:33;12.40;99.90
22966;DHT22;11649;48.090;9.754;2023-05-10T05:32:00;12.40;99.90
22966;DHT22;11649;48.090;9.754;2023-05-10T05:34:27;12.90;99.90
22966;DHT22;11649;48.090;9.754;2023-05-10T05:36:54;12.40;99.90
22966;DHT22;11649;48.090;9.754;2023-05-10T05:39:21;12.50;99.90
22966;DHT22;11649;48.090;9.754;2023-05-10T05:41:48;12.80;99.90
22966;DHT22;11649;48.090;9.754;2023-05-10T05:44:15;12.50;99.90
22966;DHT22;11649;48.090;9.754;2023-05-10T05:46:42;13.30;99.90
22966;DHT22;11649;48.090;9.754;2023-05-10T05:49:09;12.50;99.90
22966;DHT22;11649;48.090;9.754;2023-05-10T05:51:36;12.60;99.90
22966;DHT22;11649;48.090;9.754;2023-05-10T05:54:03;12.00;99.90
22966;DHT22;11649;48.090;9.754;2023-05-10T05:56:30;12.60;99.90
22966;DHT22;11649;48.090;9.754;2023-05-10T05:58:57;12.60;99.90
22966;DHT22;11649;48.090;9.754;2023-05-10T06:01:24;12.70;99.90
22966;DHT22;11649;48.090;9.754;2023-05-10T06:03:51;12.70;99.90
22966;DHT22;11649;48.090;9.754;2023-05-10T06:06:19;12.70;99.90
22966;DHT22;11649;48.090;9.754;2023-05-10T06:08:45;12.80;99.90
22966;DHT22;11649;48.090;9.754;2023-05-10T06:11:12;12.80;99.90
22966;DHT22;11649;48.090;9.754;2023-05-10T06:13:39;12.90;99.90
22966;DHT22;11649;48.090;9.754;2023-05-10T06:16:06;13.00;99.90
22966;DHT22;11649;48.090;9.754;2023-05-10T06:18:33;13.00;99.90
22966;DHT22;11649;48.090;9.754;2023-05-10T06:21:00;13.20;99.90
22966;DHT22;11649;48.090;9.754;2023-05-10T06:23:26;13.20;99.90
22966;DHT22;11649;48.090;9.754;2023-05-10T06:25:53;13.10;99.90
22966;DHT22;11649;48.090;9.754;2023-05-10T06:28:20;13.20;99.90
22966;DHT22;11649;48.090;9.754;2023-05-10T06:30:47;13.10;99.90
22966;DHT22;11649;48.090;9.754;2023-05-10T06:33:14;13.40;99.90
22966;DHT22;11649;48.090;9.754;2023-05-10T06:35:42;13.20;99.90
22966;DHT22;11649;48.090;9.754;2023-05-10T06:38:09;13.40;99.90
22966;DHT22;11649;48.090;9.754;2023-05-10T06:40:36;13.20;99.90
22966;DHT22;11649;48.090;9.754;2023-05-10T06:43:12;13.20;99.90
22966;DHT22;11649;48.090;9.754;2023-05-10T06:45:38;13.20;99.90
22966;DHT22;11649;48.090;9.754;2023-05-10T06:48:05;13.30;99.90
22966;DHT22;11649;48.090;9.754;2023-05-10T06:50:33;13.20;99.90
22966;DHT22;11649;48.090;9.754;2023-05-10T06:53:00;13.30;99.90
22966;DHT22;11649;48.090;9.754;2023-05-10T06:55:28;13.60;99.90
22966;DHT22;11649;48.090;9.754;2023-05-10T06:57:55;13.20;99.90
22966;DHT22;11649;48.090;9.754;2023-05-10T07:00:22;13.40;99.90
22966;DHT22;11649;48.090;9.754;2023-05-10T07:02:49;13.30;99.90
22966;DHT22;11649;48.090;9.754;2023-05-10T07:05:16;13.70;99.90
22966;DHT22;11649;48.090;9.754;2023-05-10T07:07:44;13.50;99.90
22966;DHT22;11649;48.090;9.754;2023-05-10T07:10:11;13.50;99.90
22966;DHT22;11649;48.090;9.754;2023-05-10T07:12:38;14.30;99.90
22966;DHT22;11649;48.090;9.754;2023-05-10T07:15:05;14.50;99.90
22966;DHT22;11649;48.090;9.754;2023-05-10T07:17:32;13.30;99.90
22966;DHT22;11649;48.090;9.754;2023-05-10T07:20:00;13.80;99.90
22966;DHT22;11649;48.090;9.754;2023-05-10T07:22:27;13.30;99.90
22966;DHT22;11649;48.090;9.754;2023-05-10T07:24:54;12.80;99.90
22966;DHT22;11649;48.090;9.754;2023-05-10T07:27:21;13.20;99.90
22966;DHT22;11649;48.090;9.754;2023-05-10T07:29:47;14.00;99.90
22966;DHT22;11649;48.090;9.754;2023-05-10T07:32:15;13.60;99.90
22966;DHT22;11649;48.090;9.754;2023-05-10T07:34:41;13.40;99.90
22966;DHT22;11649;48.090;9.754;2023-05-10T07:37:08;13.90;99.90
22966;DHT22;11649;48.090;9.754;2023-05-10T07:39:35;13.80;99.90
22966;DHT22;11649;48.090;9.754;2023-05-10T07:42:02;13.90;99.90
22966;DHT22;11649;48.090;9.754;2023-05-10T07:44:29;13.30;99.90
22966;DHT22;11649;48.090;9.754;2023-05-10T07:46:56;13.30;99.90
22966;DHT22;11649;48.090;9.754;2023-05-10T07:49:22;13.40;99.90
22966;DHT22;11649;48.090;9.754;2023-05-10T07:51:52;13.60;99.90
22966;DHT22;11649;48.090;9.754;2023-05-10T07:54:19;14.30;99.90
22966;DHT22;11649;48.090;9.754;2023-05-10T07:56:46;14.10;99.90
22966;DHT22;11649;48.090;9.754;2023-05-10T07:59:17;13.60;99.90
22966;DHT22;11649;48.090;9.754;2023-05-10T08:01:44;13.40;99.90
22966;DHT22;11649;48.090;9.754;2023-05-10T08:04:11;14.10;99.90
22966;DHT22;11649;48.090;9.754;2023-05-10T08:06:39;14.50;99.90
22966;DHT22;11649;48.090;9.754;2023-05-10T08:09:07;13.70;99.90
22966;DHT22;11649;48.090;9.754;2023-05-10T08:11:34;14.30;99.90
22966;DHT22;11649;48.090;9.754;2023-05-10T08:14:04;13.50;99.90
22966;DHT22;11649;48.090;9.754;2023-05-10T08:16:31;13.60;99.90
22966;DHT22;11649;48.090;9.754;2023-05-10T08:18:59;13.80;99.90
22966;DHT22;11649;48.090;9.754;2023-05-10T08:21:26;14.30;99.90
22966;DHT22;11649;48.090;9.754;2023-05-10T08:23:52;13.80;99.90
22966;DHT22;11649;48.090;9.754;2023-05-10T08:26:21;13.90;99.90
22966;DHT22;11649;48.090;9.754;2023-05-10T08:28:48;13.90;99.90
22966;DHT22;11649;48.090;9.754;2023-05-10T08:31:15;14.10;99.90
22966;DHT22;11649;48.090;9.754;2023-05-10T08:33:43;14.90;99.90
22966;DHT22;11649;48.090;9.754;2023-05-10T08:36:10;13.90;99.90
22966;DHT22;11649;48.090;9.754;2023-05-10T08:38:37;13.90;99.90
22966;DHT22;11649;48.090;9.754;2023-05-10T08:41:05;13.50;99.90
22966;DHT22;11649;48.090;9.754;2023-05-10T08:43:33;14.40;99.90
22966;DHT22;11649;48.090;9.754;2023-05-10T08:46:04;13.90;99.90
22966;DHT22;11649;48.090;9.754;2023-05-10T08:48:34;13.90;99.90
22966;DHT22;11649;48.090;9.754;2023-05-10T08:51:03;14.00;99.90
22966;DHT22;11649;48.090;9.754;2023-05-10T08:53:31;14.00;99.90
22966;DHT22;11649;48.090;9.754;2023-05-10T08:56:00;14.00;99.90
22966;DHT22;11649;48.090;9.754;2023-05-10T08:58:27;14.10;99.90
22966;DHT22;11649;48.090;9.754;2023-05-10T09:00:55;14.10;99.90
22966;DHT22;11649;48.090;9.754;2023-05-10T09:03:22;14.20;99.90
22966;DHT22;11649;48.090;9.754;2023-05-10T09:05:49;14.30;99.90
22966;DHT22;11649;48.090;9.754;2023-05-10T09:08:17;14.40;99.90
22966;DHT22;11649;48.090;9.754;2023-05-10T09:10:54;14.40;99.90
22966;DHT22;11649;48.090;9.754;2023-05-10T09:13:35;14.40;99.90
22966;DHT22;11649;48.090;9.754;2023-05-10T09:16:08;14.40;99.90
22966;DHT22;11649;48.090;9.754;2023-05-10T09:18:46;14.40;99.90
22966;DHT22;11649;48.090;9.754;2023-05-10T09:21:13;14.30;99.90
22966;DHT22;11649;48.090;9.754;2023-05-10T09:23:43;14.50;99.90
22966;DHT22;11649;48.090;9.754;2023-05-10T09:26:14;14.50;99.90
22966;DHT22;11649;48.090;9.754;2023-05-10T09:31:18;14.40;99.90
22966;DHT22;11649;48.090;9.754;2023-05-10T09:33:45;14.40;99.90
22966;DHT22;11649;48.090;9.754;2023-05-10T09:36:13;14.40;99.90
22966;DHT22;11649;48.090;9.754;2023-05-10T09:41:18;14.30;99.90
22966;DHT22;11649;48.090;9.754;2023-05-10T09:43:46;14.20;99.90
22966;DHT22;11649;48.090;9.754;2023-05-10T09:46:15;14.10;99.90
22966;DHT22;11649;48.090;9.754;2023-05-10T09:48:44;14.20;99.90
22966;DHT22;11649;48.090;9.754;2023-05-10T09:51:19;14.40;99.90
22966;DHT22;11649;48.090;9.754;2023-05-10T09:53:47;14.30;99.90
22966;DHT22;11649;48.090;9.754;2023-05-10T09:56:32;14.40;99.90
22966;DHT22;11649;48.090;9.754;2023-05-10T09:59:02;14.30;99.90
22966;DHT22;11649;48.090;9.754;2023-05-10T10:01:29;14.30;99.90
22966;DHT22;11649;48.090;9.754;2023-05-10T10:03:58;14.10;99.90
22966;DHT22;11649;48.090;9.754;2023-05-10T10:06:25;13.90;99.90
22966;DHT22;11649;48.090;9.754;2023-05-10T10:08:56;13.70;99.90
22966;DHT22;11649;48.090;9.754;2023-05-10T10:11:23;13.30;99.90
22966;DHT22;11649;48.090;9.754;2023-05-10T10:13:50;12.70;99.90
22966;DHT22;11649;48.090;9.754;2023-05-10T10:16:17;12.30;99.90
22966;DHT22;11649;48.090;9.754;2023-05-10T10:18:44;12.00;99.90
22966;DHT22;11649;48.090;9.754;2023-05-10T10:21:13;11.90;99.90
22966;DHT22;11649;48.090;9.754;2023-05-10T10:23:41;11.80;99.90
22966;DHT22;11649;48.090;9.754;2023-05-10T10:26:08;11.70;99.90
22966;DHT22;11649;48.090;9.754;2023-05-10T10:28:50;11.70;99.90
22966;DHT22;11649;48.090;9.754;2023-05-10T10:31:41;11.70;99.90
22966;DHT22;11649;48.090;9.754;2023-05-10T10:34:26;11.60;99.90
22966;DHT22;11649;48.090;9.754;2023-05-10T10:36:56;11.80;99.90
22966;DHT22;11649;48.090;9.754;2023-05-10T10:39:24;12.00;99.90
22966;DHT22;11649;48.090;9.754;2023-05-10T10:41:56;12.20;99.90
22966;DHT22;11649;48.090;9.754;2023-05-10T10:44:24;12.40;99.90
22966;DHT22;11649;48.090;9.754;2023-05-10T10:47:21;12.50;99.90
22966;DHT22;11649;48.090;9.754;2023-05-10T10:52:34;12.50;99.90
22966;DHT22;11649;48.090;9.754;2023-05-10T10:55:09;12.50;99.90
22966;DHT22;11649;48.090;9.754;2023-05-10T11:00:30;12.30;99.90
22966;DHT22;11649;48.090;9.754;2023-05-10T11:03:11;12.30;99.90
22966;DHT22;11649;48.090;9.754;2023-05-10T11:05:46;12.30;99.90
22966;DHT22;11649;48.090;9.754;2023-05-10T11:08:30;12.30;99.90
22966;DHT22;11649;48.090;9.754;2023-05-10T11:13:43;12.40;99.90
22966;DHT22;11649;48.090;9.754;2023-05-10T11:16:21;12.40;99.90
22966;DHT22;11649;48.090;9.754;2023-05-10T11:19:13;12.40;99.90
22966;DHT22;11649;48.090;9.754;2023-05-10T11:21:48;12.40;99.90
22966;DHT22;11649;48.090;9.754;2023-05-10T11:24:21;12.40;99.90
22966;DHT22;11649;48.090;9.754;2023-05-10T11:26:51;12.30;99.90
22966;DHT22;11649;48.090;9.754;2023-05-10T11:29:18;12.20;99.90
22966;DHT22;11649;48.090;9.754;2023-05-10T11:31:46;12.20;99.90
22966;DHT22;11649;48.090;9.754;2023-05-10T11:34:25;12.20;99.90
22966;DHT22;11649;48.090;9.754;2023-05-10T11:36:55;12.20;99.90
22966;DHT22;11649;48.090;9.754;2023-05-10T11:39:27;12.20;99.90
22966;DHT22;11649;48.090;9.754;2023-05-10T11:41:54;12.30;99.90
22966;DHT22;11649;48.090;9.754;2023-05-10T11:44:21;12.10;99.90
22966;DHT22;11649;48.090;9.754;2023-05-10T11:47:29;12.20;99.90
22966;DHT22;11649;48.090;9.754;2023-05-10T11:49:59;11.30;99.90
22966;DHT22;11649;48.090;9.754;2023-05-10T11:52:26;12.40;99.90
22966;DHT22;11649;48.090;9.754;2023-05-10T11:54:54;12.20;99.90
22966;DHT22;11649;48.090;9.754;2023-05-10T11:57:26;12.00;99.90
22966;DHT22;11649;48.090;9.754;2023-05-10T11:59:54;11.90;99.90
22966;DHT22;11649;48.090;9.754;2023-05-10T12:02:24;11.90;99.90
22966;DHT22;11649;48.090;9.754;2023-05-10T12:04:51;12.20;99.90
22966;DHT22;11649;48.090;9.754;2023-05-10T12:07:18;12.00;99.90
22966;DHT22;11649;48.090;9.754;2023-05-10T12:10:05;11.80;99.90
22966;DHT22;11649;48.090;9.754;2023-05-10T12:12:44;11.90;99.90
22966;DHT22;11649;48.090;9.754;2023-05-10T12:15:19;11.90;99.90
22966;DHT22;11649;48.090;9.754;2023-05-10T12:17:47;12.00;99.90
22966;DHT22;11649;48.090;9.754;2023-05-10T12:20:22;11.90;99.90
22966;DHT22;11649;48.090;9.754;2023-05-10T12:22:54;11.90;99.90
22966;DHT22;11649;48.090;9.754;2023-05-10T12:25:30;11.80;99.90
22966;DHT22;11649;48.090;9.754;2023-05-10T12:27:59;11.70;99.90
22966;DHT22;11649;48.090;9.754;2023-05-10T12:30:31;11.80;99.90
22966;DHT22;11649;48.090;9.754;2023-05-10T12:33:02;11.80;99.90
22966;DHT22;11649;48.090;9.754;2023-05-10T12:35:30;11.70;99.90
22966;DHT22;11649;48.090;9.754;2023-05-10T12:37:58;11.80;99.90
22966;DHT22;11649;48.090;9.754;2023-05-10T12:40:27;11.80;99.90
22966;DHT22;11649;48.090;9.754;2023-05-10T12:42:57;12.70;99.90
22966;DHT22;11649;48.090;9.754;2023-05-10T12:45:31;12.80;99.90
22966;DHT22;11649;48.090;9.754;2023-05-10T12:47:59;11.90;99.90
22966;DHT22;11649;48.090;9.754;2023-05-10T12:50:26;13.10;99.90
22966;DHT22;11649;48.090;9.754;2023-05-10T12:52:56;12.10;99.90
22966;DHT22;11649;48.090;9.754;2023-05-10T12:55:23;13.70;99.90
22966;DHT22;11649;48.090;9.754;2023-05-10T12:57:50;12.30;99.90
22966;DHT22;11649;48.090;9.754;2023-05-10T13:00:17;12.30;99.90
22966;DHT22;11649;48.090;9.754;2023-05-10T13:02:57;12.30;99.90
22966;DHT22;11649;48.090;9.754;2023-05-10T13:05:24;12.30;99.90
22966;DHT22;11649;48.090;9.754;2023-05-10T13:07:51;12.40;99.90
22966;DHT22;11649;48.090;9.754;2023-05-10T13:10:17;13.40;99.90
22966;DHT22;11649;48.090;9.754;2023-05-10T13:12:45;12.60;99.90
22966;DHT22;11649;48.090;9.754;2023-05-10T13:15:12;12.70;99.90
22966;DHT22;11649;48.090;9.754;2023-05-10T13:17:38;12.80;99.90
22966;DHT22;11649;48.090;9.754;2023-05-10T13:20:07;14.00;99.90
22966;DHT22;11649;48.090;9.754;2023-05-10T13:22:34;12.50;99.90
22966;DHT22;11649;48.090;9.754;2023-05-10T13:25:06;12.50;99.90
22966;DHT22;11649;48.090;9.754;2023-05-10T13:27:32;12.70;99.90
22966;DHT22;11649;48.090;9.754;2023-05-10T13:29:59;12.70;99.90
22966;DHT22;11649;48.090;9.754;2023-05-10T13:32:26;12.70;99.90
22966;DHT22;11649;48.090;9.754;2023-05-10T13:34:53;12.70;99.90
22966;DHT22;11649;48.090;9.754;2023-05-10T13:37:19;12.80;99.90
22966;DHT22;11649;48.090;9.754;2023-05-10T13:39:48;12.90;99.90
22966;DHT22;11649;48.090;9.754;2023-05-10T13:42:22;12.90;99.90
22966;DHT22;11649;48.090;9.754;2023-05-10T13:44:50;12.80;99.90
22966;DHT22;11649;48.090;9.754;2023-05-10T13:47:17;12.90;99.90
22966;DHT22;11649;48.090;9.754;2023-05-10T13:49:45;12.60;99.90
22966;DHT22;11649;48.090;9.754;2023-05-10T13:52:16;13.00;99.90
22966;DHT22;11649;48.090;9.754;2023-05-10T13:54:43;12.90;99.90
22966;DHT22;11649;48.090;9.754;2023-05-10T13:57:10;13.00;99.90
22966;DHT22;11649;48.090;9.754;2023-05-10T13:59:39;13.10;99.90
22966;DHT22;11649;48.090;9.754;2023-05-10T14:02:06;12.80;99.90
22966;DHT22;11649;48.090;9.754;2023-05-10T14:04:33;12.80;99.90
22966;DHT22;11649;48.090;9.754;2023-05-10T14:07:01;12.70;99.90
22966;DHT22;11649;48.090;9.754;2023-05-10T14:09:28;12.90;99.90
22966;DHT22;11649;48.090;9.754;2023-05-10T14:11:55;12.50;99.90
22966;DHT22;11649;48.090;9.754;2023-05-10T14:14:22;12.50;99.90
22966;DHT22;11649;48.090;9.754;2023-05-10T14:16:49;14.50;99.90
22966;DHT22;11649;48.090;9.754;2023-05-10T14:19:15;12.50;99.90
22966;DHT22;11649;48.090;9.754;2023-05-10T14:21:42;14.50;99.90
22966;DHT22;11649;48.090;9.754;2023-05-10T14:24:09;13.50;99.90
22966;DHT22;11649;48.090;9.754;2023-05-10T14:26:36;12.30;99.90
22966;DHT22;11649;48.090;9.754;2023-05-10T14:29:03;12.40;99.90
22966;DHT22;11649;48.090;9.754;2023-05-10T14:31:30;13.60;99.90
22966;DHT22;11649;48.090;9.754;2023-05-10T14:33:57;13.00;99.90
22966;DHT22;11649;48.090;9.754;2023-05-10T14:36:24;12.60;99.90
22966;DHT22;11649;48.090;9.754;2023-05-10T14:38:51;12.60;99.90
22966;DHT22;11649;48.090;9.754;2023-05-10T14:41:18;12.60;99.90
22966;DHT22;11649;48.090;9.754;2023-05-10T14:43:44;12.80;99.90
22966;DHT22;11649;48.090;9.754;2023-05-10T14:46:11;12.60;99.90
22966;DHT22;11649;48.090;9.754;2023-05-10T14:48:38;12.70;99.90
22966;DHT22;11649;48.090;9.754;2023-05-10T14:51:05;12.70;99.90
22966;DHT22;11649;48.090;9.754;2023-05-10T14:53:33;12.80;99.90
22966;DHT22;11649;48.090;9.754;2023-05-10T14:55:59;12.80;99.90
22966;DHT22;11649;48.090;9.754;2023-05-10T14:58:27;13.00;99.90
22966;DHT22;11649;48.090;9.754;2023-05-10T15:01:06;12.80;99.90
22966;DHT22;11649;48.090;9.754;2023-05-10T15:07:10;12.60;99.90
22966;DHT22;11649;48.090;9.754;2023-05-10T15:09:40;13.00;99.90
22966;DHT22;11649;48.090;9.754;2023-05-10T15:12:07;13.00;99.90
22966;DHT22;11649;48.090;9.754;2023-05-10T15:14:34;13.80;99.90
22966;DHT22;11649;48.090;9.754;2023-05-10T15:17:03;12.80;99.90
22966;DHT22;11649;48.090;9.754;2023-05-10T15:19:29;13.00;99.90
22966;DHT22;11649;48.090;9.754;2023-05-10T15:21:56;13.00;99.90
22966;DHT22;11649;48.090;9.754;2023-05-10T15:24:23;12.90;99.90
22966;DHT22;11649;48.090;9.754;2023-05-10T15:26:50;12.90;99.90
22966;DHT22;11649;48.090;9.754;2023-05-10T15:29:16;12.90;99.90
22966;DHT22;11649;48.090;9.754;2023-05-10T15:31:53;13.00;99.90
22966;DHT22;11649;48.090;9.754;2023-05-10T15:34:20;13.20;99.90
22966;DHT22;11649;48.090;9.754;2023-05-10T15:37:18;13.20;99.90
22966;DHT22;11649;48.090;9.754;2023-05-10T15:42:55;13.10;99.90
22966;DHT22;11649;48.090;9.754;2023-05-10T15:45:22;12.80;99.90
22966;DHT22;11649;48.090;9.754;2023-05-10T15:47:49;12.70;99.90
22966;DHT22;11649;48.090;9.754;2023-05-10T15:50:16;12.60;99.90
22966;DHT22;11649;48.090;9.754;2023-05-10T15:52:43;12.60;99.90
22966;DHT22;11649;48.090;9.754;2023-05-10T15:55:10;12.70;99.90
22966;DHT22;11649;48.090;9.754;2023-05-10T15:57:40;12.70;99.90
22966;DHT22;11649;48.090;9.754;2023-05-10T16:00:11;12.60;99.90
22966;DHT22;11649;48.090;9.754;2023-05-10T16:02:39;12.70;99.90
22966;DHT22;11649;48.090;9.754;2023-05-10T16:05:06;12.80;99.90
22966;DHT22;11649;48.090;9.754;2023-05-10T16:07:33;12.90;99.90
22966;DHT22;11649;48.090;9.754;2023-05-10T16:10:00;12.80;99.90
22966;DHT22;11649;48.090;9.754;2023-05-10T16:12:30;12.80;99.90
22966;DHT22;11649;48.090;9.754;2023-05-10T16:14:57;12.70;99.90
22966;DHT22;11649;48.090;9.754;2023-05-10T16:17:23;12.50;99.90